createdAt,value
2023-05-10T00:00:40.948Z,4.6
2023-05-10T00:01:49.390Z,4.6
2023-05-10T00:02:57.654Z,4.6
2023-05-10T00:04:06.121Z,6.1
2023-05-10T00:05:14.450Z,6.1
2023-05-10T00:06:22.759Z,6.1
2023-05-10T00:07:31.293Z,5.6
2023-05-10T00:08:39.626Z,5.6
2023-05-10T00:09:47.951Z,5.6
2023-05-10T00:10:56.473Z,4.8
2023-05-10T00:12:04.780Z,4.8
2023-05-10T00:13:13.123Z,4.8
2023-05-10T00:14:21.626Z,6.4
2023-05-10T00:15:29.941Z,6.4
2023-05-10T00:16:38.271Z,6.4
2023-05-10T00:17:46.760Z,5.5
2023-05-10T00:18:55.082Z,5.5
2023-05-10T00:20:03.392Z,5.5
2023-05-10T00:21:11.917Z,4.8
2023-05-10T00:22:20.193Z,4.8
2023-05-10T00:23:28.515Z,4.8
2023-05-10T00:24:37.029Z,5.2
2023-05-10T00:25:45.331Z,5.2
2023-05-10T00:26:53.640Z,5.2
2023-05-10T00:28:02.171Z,5.1
2023-05-10T00:29:10.471Z,5.1
2023-05-10T00:30:19.011Z,5.1
2023-05-10T00:31:27.332Z,5.3
2023-05-10T00:32:35.598Z,5.3
2023-05-10T00:33:43.923Z,5.3
2023-05-10T00:34:52.454Z,6.2
2023-05-10T00:36:00.765Z,6.2
2023-05-10T00:37:09.098Z,6.2
2023-05-10T00:38:17.637Z,5.9
2023-05-10T00:39:25.945Z,5.9
2023-05-10T00:40:34.289Z,5.9
2023-05-10T00:41:42.762Z,5.3
2023-05-10T00:42:51.091Z,5.3
2023-05-10T00:43:59.388Z,5.3
2023-05-10T00:45:07.901Z,5.4
2023-05-10T00:46:16.247Z,5.4
2023-05-10T00:47:24.547Z,5.4
2023-05-10T00:48:33.049Z,5.5
2023-05-10T00:49:41.343Z,5.5
2023-05-10T00:50:49.657Z,5.5
2023-05-10T00:51:58.183Z,5.3
2023-05-10T00:53:06.482Z,5.3
2023-05-10T00:54:14.783Z,5.3
2023-05-10T00:55:23.307Z,5.3
2023-05-10T00:56:31.628Z,5.3
2023-05-10T00:57:39.946Z,5.3
2023-05-10T00:58:48.493Z,10.1
2023-05-10T00:59:56.783Z,10.1
2023-05-10T01:01:05.122Z,10.1
2023-05-10T01:02:13.629Z,5.7
2023-05-10T01:03:22.042Z,5.7
2023-05-10T01:04:30.230Z,5.7
2023-05-10T01:05:38.770Z,4.9
2023-05-10T01:06:47.054Z,4.9
2023-05-10T01:07:55.390Z,4.9
2023-05-10T01:09:03.902Z,6.7
2023-05-10T01:10:12.221Z,6.7
2023-05-10T01:11:20.534Z,6.7
2023-05-10T01:12:29.065Z,8.1
2023-05-10T01:13:37.358Z,8.1
2023-05-10T01:14:45.668Z,8.1
2023-05-10T01:15:54.192Z,4.9
2023-05-10T01:17:02.478Z,4.9
2023-05-10T01:18:10.781Z,4.9
2023-05-10T01:19:19.438Z,5
2023-05-10T01:20:27.631Z,5
2023-05-10T01:21:35.947Z,5
2023-05-10T01:22:44.454Z,5.7
2023-05-10T01:23:52.756Z,5.7
2023-05-10T01:25:01.078Z,5.7
2023-05-10T01:26:09.587Z,5.8
2023-05-10T01:27:17.899Z,5.8
2023-05-10T01:28:26.208Z,5.8
2023-05-10T01:29:34.736Z,4.7
2023-05-10T01:30:43.065Z,4.7
2023-05-10T01:31:51.382Z,4.7
2023-05-10T01:32:59.914Z,5.3
2023-05-10T01:34:08.216Z,5.3
2023-05-10T01:35:16.528Z,5.3
2023-05-10T01:36:25.033Z,6.1
2023-05-10T01:37:33.359Z,6.1
2023-05-10T01:38:41.684Z,6.1
2023-05-10T01:39:50.211Z,7.6
2023-05-10T01:40:58.496Z,7.6
2023-05-10T01:42:06.825Z,7.6
2023-05-10T01:43:15.356Z,5.1
2023-05-10T01:44:23.700Z,5.1
2023-05-10T01:45:32.002Z,5.1
2023-05-10T01:46:40.565Z,5.3
2023-05-10T01:47:48.922Z,5.3
2023-05-10T01:48:57.191Z,5.3
2023-05-10T01:50:05.695Z,4.5
2023-05-10T01:51:14.035Z,4.5
2023-05-10T01:52:22.326Z,4.5
2023-05-10T01:53:30.848Z,6.9
2023-05-10T01:54:39.153Z,6.9
2023-05-10T01:55:47.476Z,6.9
2023-05-10T01:56:56.003Z,6
2023-05-10T01:58:04.323Z,6
2023-05-10T01:59:12.631Z,6
2023-05-10T02:00:21.114Z,6
2023-05-10T02:01:29.419Z,6
2023-05-10T02:02:37.763Z,6
2023-05-10T02:03:46.370Z,6.3
2023-05-10T02:04:54.630Z,6.3
2023-05-10T02:06:02.951Z,6.3
2023-05-10T02:07:11.517Z,5
2023-05-10T02:08:19.814Z,5
2023-05-10T02:09:28.156Z,5
2023-05-10T02:10:36.675Z,5.9
2023-05-10T02:11:45.011Z,5.9
2023-05-10T02:12:53.331Z,5.9
2023-05-10T02:14:01.837Z,7
2023-05-10T02:15:10.148Z,7
2023-05-10T02:16:18.518Z,7
2023-05-10T02:17:27.018Z,5
2023-05-10T02:18:35.308Z,5
2023-05-10T02:19:43.637Z,5
2023-05-10T02:20:52.147Z,5.6
2023-05-10T02:22:00.468Z,5.6
2023-05-10T02:23:08.799Z,5.6
2023-05-10T02:24:17.287Z,6.1
2023-05-10T02:25:25.619Z,6.1
2023-05-10T02:26:33.910Z,6.1
2023-05-10T02:27:42.430Z,5.7
2023-05-10T02:28:50.740Z,5.7
2023-05-10T02:29:59.069Z,5.7
2023-05-10T02:31:07.573Z,6.8
2023-05-10T02:32:15.934Z,6.8
2023-05-10T02:33:24.190Z,6.8
2023-05-10T02:34:32.716Z,4.4
2023-05-10T02:35:41.017Z,4.4
2023-05-10T02:36:49.313Z,4.4
2023-05-10T02:37:57.823Z,4.8
2023-05-10T02:39:06.171Z,4.8
2023-05-10T02:40:14.502Z,4.8
2023-05-10T02:41:22.975Z,5.3
2023-05-10T02:42:31.307Z,5.3
2023-05-10T02:43:39.644Z,5.3
2023-05-10T02:44:48.173Z,4.5
2023-05-10T02:45:56.507Z,4.5
2023-05-10T02:47:04.805Z,4.5
2023-05-10T02:48:13.372Z,5.9
2023-05-10T02:49:21.664Z,5.9
2023-05-10T02:50:29.985Z,5.9
2023-05-10T02:51:38.499Z,5.3
2023-05-10T02:52:46.809Z,5.3
2023-05-10T02:53:55.161Z,5.3
2023-05-10T02:55:03.709Z,4.4
2023-05-10T02:56:11.993Z,4.4
2023-05-10T02:57:20.382Z,4.4
2023-05-10T02:58:28.856Z,4.6
2023-05-10T02:59:37.175Z,4.6
2023-05-10T03:00:45.469Z,4.6
2023-05-10T03:01:54.054Z,6
2023-05-10T03:03:02.387Z,6
2023-05-10T03:04:10.664Z,6
2023-05-10T03:05:19.144Z,7.2
2023-05-10T03:06:27.474Z,7.2
2023-05-10T03:07:35.806Z,7.2
2023-05-10T03:08:44.341Z,5.2
2023-05-10T03:09:52.661Z,5.2
2023-05-10T03:11:00.987Z,5.2
2023-05-10T03:12:09.482Z,4.6
2023-05-10T03:13:17.828Z,4.6
2023-05-10T03:14:26.124Z,4.6
2023-05-10T03:15:34.639Z,5.6
2023-05-10T03:16:44.856Z,5.6
2023-05-10T03:17:51.301Z,5.6
2023-05-10T03:18:59.814Z,6.1
2023-05-10T03:20:08.155Z,6.1
2023-05-10T03:21:16.438Z,6.1
2023-05-10T03:22:24.973Z,5.3
2023-05-10T03:23:33.497Z,5.3
2023-05-10T03:24:41.797Z,5.3
2023-05-10T03:25:50.334Z,5.7
2023-05-10T03:26:58.736Z,5.7
2023-05-10T03:28:07.101Z,5.7
2023-05-10T03:29:15.565Z,4.8
2023-05-10T03:30:23.903Z,4.8
2023-05-10T03:31:32.227Z,4.8
2023-05-10T03:32:40.796Z,4.7
2023-05-10T03:33:49.129Z,4.7
2023-05-10T03:34:57.464Z,4.7
2023-05-10T03:36:05.975Z,5.9
2023-05-10T03:37:14.329Z,5.9
2023-05-10T03:38:22.636Z,5.9
2023-05-10T03:39:31.179Z,7.1
2023-05-10T03:40:39.536Z,7.1
2023-05-10T03:41:47.835Z,7.1
2023-05-10T03:42:56.414Z,5.7
2023-05-10T03:44:04.767Z,5.7
2023-05-10T03:45:13.046Z,5.7
2023-05-10T03:46:21.615Z,6.6
2023-05-10T03:47:30.007Z,6.6
2023-05-10T03:48:38.228Z,6.6
2023-05-10T03:49:46.833Z,6.2
2023-05-10T03:50:55.178Z,6.2
2023-05-10T03:52:03.467Z,6.2
2023-05-10T03:53:11.983Z,5.8
2023-05-10T03:54:20.289Z,5.8
2023-05-10T03:55:28.602Z,5.8
2023-05-10T03:56:37.124Z,5.5
2023-05-10T03:57:45.440Z,5.5
2023-05-10T03:58:53.764Z,5.5
2023-05-10T04:00:02.253Z,5.8
2023-05-10T04:01:10.558Z,5.8
2023-05-10T04:02:18.880Z,5.8
2023-05-10T04:03:27.420Z,4.9
2023-05-10T04:04:35.697Z,4.9
2023-05-10T04:05:43.994Z,4.9
2023-05-10T04:06:52.515Z,6
2023-05-10T04:08:00.828Z,6
2023-05-10T04:09:09.147Z,6
2023-05-10T04:10:17.908Z,6.3
2023-05-10T04:11:25.972Z,6.3
2023-05-10T04:12:34.272Z,6.3
2023-05-10T04:13:42.808Z,5.8
2023-05-10T04:14:51.232Z,5.8
2023-05-10T04:15:59.407Z,5.8
2023-05-10T04:17:07.983Z,6
2023-05-10T04:18:16.232Z,6
2023-05-10T04:19:24.531Z,6
2023-05-10T04:20:33.056Z,7.6
2023-05-10T04:21:41.366Z,7.6
2023-05-10T04:22:49.660Z,7.6
2023-05-10T04:23:58.185Z,5.8
2023-05-10T04:25:06.498Z,5.8
2023-05-10T04:26:14.805Z,5.8
2023-05-10T04:27:23.315Z,6.3
2023-05-10T04:28:31.645Z,6.3
2023-05-10T04:29:39.948Z,6.3
2023-05-10T04:30:48.517Z,6.3
2023-05-10T04:31:56.754Z,6.3
2023-05-10T04:33:05.081Z,6.3
2023-05-10T04:34:13.575Z,7.7
2023-05-10T04:35:21.888Z,7.7
2023-05-10T04:36:30.203Z,7.7
2023-05-10T04:37:38.726Z,6.9
2023-05-10T04:38:47.028Z,6.9
2023-05-10T04:39:55.335Z,6.9
2023-05-10T04:41:03.837Z,5.7
2023-05-10T04:42:12.163Z,5.7
2023-05-10T04:43:20.470Z,5.7
2023-05-10T04:44:28.973Z,6.5
2023-05-10T04:45:37.284Z,6.5
2023-05-10T04:46:45.725Z,6.5
2023-05-10T04:47:54.149Z,6.4
2023-05-10T04:49:02.441Z,6.4
2023-05-10T04:50:10.746Z,6.4
2023-05-10T04:51:19.264Z,5
2023-05-10T04:52:27.623Z,5
2023-05-10T04:53:35.921Z,5
2023-05-10T04:54:44.443Z,6
2023-05-10T04:55:52.761Z,6
2023-05-10T04:57:01.068Z,6
2023-05-10T04:58:09.588Z,5.5
2023-05-10T04:59:17.886Z,5.5
2023-05-10T05:00:26.198Z,5.5
2023-05-10T05:01:34.856Z,5.8
2023-05-10T05:02:43.166Z,5.8
2023-05-10T05:03:51.470Z,5.8
2023-05-10T05:04:59.834Z,7.2
2023-05-10T05:06:08.136Z,7.2
2023-05-10T05:07:16.443Z,7.2
2023-05-10T05:08:25.000Z,6.2
2023-05-10T05:09:33.264Z,6.2
2023-05-10T05:10:41.590Z,6.2
2023-05-10T05:11:50.118Z,6.8
2023-05-10T05:12:58.486Z,6.8
2023-05-10T05:14:06.729Z,6.8
2023-05-10T05:15:15.258Z,7.3
2023-05-10T05:16:23.563Z,7.3
2023-05-10T05:17:31.861Z,7.3
2023-05-10T05:18:40.397Z,6.4
2023-05-10T05:19:48.695Z,6.4
2023-05-10T05:20:57.008Z,6.4
2023-05-10T05:22:05.518Z,7.3
2023-05-10T05:23:13.820Z,7.3
2023-05-10T05:24:22.134Z,7.3
2023-05-10T05:25:30.662Z,8
2023-05-10T05:26:38.967Z,8
2023-05-10T05:27:47.468Z,8
2023-05-10T05:28:55.987Z,7.8
2023-05-10T05:30:04.299Z,7.8
2023-05-10T05:31:12.615Z,7.8
2023-05-10T05:32:21.125Z,7.2
2023-05-10T05:33:29.417Z,7.2
2023-05-10T05:34:37.765Z,7.2
2023-05-10T05:35:46.256Z,7
2023-05-10T05:36:54.561Z,7
2023-05-10T05:38:02.865Z,7
2023-05-10T05:39:11.399Z,6.9
2023-05-10T05:40:19.712Z,6.9
2023-05-10T05:41:28.028Z,6.9
2023-05-10T05:42:36.601Z,5.8
2023-05-10T05:43:44.840Z,5.8
2023-05-10T05:44:53.154Z,5.8
2023-05-10T05:46:01.708Z,7
2023-05-10T05:47:09.978Z,7
2023-05-10T05:48:18.297Z,7
2023-05-10T05:49:26.805Z,8.2
2023-05-10T05:50:35.126Z,8.2
2023-05-10T05:51:43.420Z,8.2
2023-05-10T05:52:51.956Z,11.8
2023-05-10T05:54:00.255Z,11.8
2023-05-10T05:55:08.548Z,11.8
2023-05-10T05:56:17.070Z,6.8
2023-05-10T05:57:25.387Z,6.8
2023-05-10T05:58:33.709Z,6.8
2023-05-10T05:59:42.220Z,6.9
2023-05-10T06:00:50.569Z,6.9
2023-05-10T06:01:58.894Z,6.9
2023-05-10T06:03:07.399Z,6.9
2023-05-10T06:04:15.664Z,6.9
2023-05-10T06:05:23.953Z,6.9
2023-05-10T06:06:32.486Z,9.7
2023-05-10T06:07:40.784Z,9.7
2023-05-10T06:08:49.086Z,9.7
2023-05-10T06:09:57.621Z,8
2023-05-10T06:11:05.932Z,8
2023-05-10T06:12:14.229Z,8
2023-05-10T06:13:22.785Z,8.3
2023-05-10T06:14:31.057Z,8.3
2023-05-10T06:15:39.347Z,8.3
2023-05-10T06:16:47.870Z,7.2
2023-05-10T06:17:56.208Z,7.2
2023-05-10T06:19:04.478Z,7.2
2023-05-10T06:20:12.993Z,8.2
2023-05-10T06:21:21.301Z,8.2
2023-05-10T06:22:29.634Z,8.2
2023-05-10T06:23:38.111Z,7.8
2023-05-10T06:24:46.437Z,7.8
2023-05-10T06:25:54.740Z,7.8
2023-05-10T06:27:03.278Z,9
2023-05-10T06:28:11.561Z,9
2023-05-10T06:29:19.853Z,9
2023-05-10T06:30:28.432Z,8.4
2023-05-10T06:31:36.699Z,8.4
2023-05-10T06:32:45.091Z,8.4
2023-05-10T06:33:55.366Z,8.5
2023-05-10T06:35:01.803Z,8.5
2023-05-10T06:36:10.109Z,8.5
2023-05-10T06:37:18.672Z,8.5
2023-05-10T06:38:26.995Z,8.5
2023-05-10T06:39:35.269Z,8.5
2023-05-10T06:40:43.798Z,9.7
2023-05-10T06:41:52.119Z,9.7
2023-05-10T06:43:00.407Z,9.7
2023-05-10T06:44:08.916Z,9.2
2023-05-10T06:45:17.588Z,9.2
2023-05-10T06:46:25.601Z,9.2
2023-05-10T06:47:34.740Z,9.5
2023-05-10T06:48:42.364Z,9.5
2023-05-10T06:49:50.677Z,9.5
2023-05-10T06:50:59.180Z,10
2023-05-10T06:52:07.505Z,10
2023-05-10T06:53:15.835Z,10
2023-05-10T06:54:24.373Z,8.4
2023-05-10T06:55:32.649Z,8.4
2023-05-10T06:56:40.956Z,8.4
2023-05-10T06:57:49.477Z,9.9
2023-05-10T06:58:57.790Z,9.9
2023-05-10T07:00:06.204Z,9.9
2023-05-10T07:01:14.766Z,9.8
2023-05-10T07:02:22.982Z,9.8
2023-05-10T07:03:31.230Z,9.8
2023-05-10T07:04:39.766Z,9.3
2023-05-10T07:05:48.096Z,9.3
2023-05-10T07:06:56.408Z,9.3
2023-05-10T07:08:04.908Z,13.5
2023-05-10T07:09:13.229Z,13.5
2023-05-10T07:10:21.592Z,13.5
2023-05-10T07:11:30.114Z,10.7
2023-05-10T07:12:38.414Z,10.7
2023-05-10T07:13:46.731Z,10.7
2023-05-10T07:14:55.236Z,12.4
2023-05-10T07:16:03.576Z,12.4
2023-05-10T07:17:11.868Z,12.4
2023-05-10T07:18:20.434Z,12.1
2023-05-10T07:19:28.697Z,12.1
2023-05-10T07:20:37.004Z,12.1
2023-05-10T07:21:45.529Z,11.2
2023-05-10T07:22:53.837Z,11.2
2023-05-10T07:24:02.152Z,11.2
2023-05-10T07:25:10.674Z,9.9
2023-05-10T07:26:19.075Z,9.9
2023-05-10T07:27:27.369Z,9.9
2023-05-10T07:28:35.882Z,11.6
2023-05-10T07:29:44.179Z,11.6
2023-05-10T07:30:52.529Z,11.6
2023-05-10T07:32:01.035Z,9.4
2023-05-10T07:33:09.376Z,9.4
2023-05-10T07:34:17.629Z,9.4
2023-05-10T07:35:26.149Z,11
2023-05-10T07:36:34.454Z,11
2023-05-10T07:37:42.767Z,11
2023-05-10T07:38:51.298Z,12
2023-05-10T07:39:59.599Z,12
2023-05-10T07:41:07.919Z,12
2023-05-10T07:42:16.475Z,9.7
2023-05-10T07:43:24.752Z,9.7
2023-05-10T07:44:33.050Z,9.7
2023-05-10T07:45:41.607Z,9.7
2023-05-10T07:46:49.951Z,9.7
2023-05-10T07:47:58.246Z,9.7
2023-05-10T07:49:06.719Z,10.6
2023-05-10T07:50:15.006Z,10.6
2023-05-10T07:51:23.325Z,10.6
2023-05-10T07:52:31.860Z,12.1
2023-05-10T07:53:40.163Z,12.1
2023-05-10T07:54:48.473Z,12.1
2023-05-10T07:55:57.013Z,10.8
2023-05-10T07:57:05.327Z,10.8
2023-05-10T07:58:13.677Z,10.8
2023-05-10T07:59:22.163Z,10.8
2023-05-10T08:00:30.465Z,10.8
2023-05-10T08:01:38.774Z,10.8
2023-05-10T08:02:47.328Z,7.9
2023-05-10T08:03:55.660Z,7.9
2023-05-10T08:05:03.918Z,7.9
2023-05-10T08:06:12.425Z,4.2
2023-05-10T08:07:20.729Z,4.2
2023-05-10T08:08:29.040Z,4.2
2023-05-10T08:09:37.566Z,9.5
2023-05-10T08:10:45.864Z,9.5
2023-05-10T08:11:54.190Z,9.5
2023-05-10T08:13:02.704Z,6.4
2023-05-10T08:14:11.043Z,6.4
2023-05-10T08:15:19.524Z,6.4
2023-05-10T08:16:27.889Z,5.4
2023-05-10T08:17:36.166Z,5.4
2023-05-10T08:18:44.495Z,5.4
2023-05-10T08:19:53.003Z,4.8
2023-05-10T08:21:01.292Z,4.8
2023-05-10T08:22:09.624Z,4.8
2023-05-10T08:23:18.128Z,5.3
2023-05-10T08:24:26.431Z,5.3
2023-05-10T08:25:35.649Z,5.3
2023-05-10T08:26:44.174Z,4.8
2023-05-10T08:27:52.479Z,4.8
2023-05-10T08:29:00.803Z,4.8
2023-05-10T08:30:09.428Z,4.4
2023-05-10T08:31:17.661Z,4.4
2023-05-10T08:32:25.972Z,4.4
2023-05-10T08:33:34.530Z,2.8
2023-05-10T08:34:42.843Z,2.8
2023-05-10T08:35:51.149Z,2.8
2023-05-10T08:36:59.677Z,3.3
2023-05-10T08:38:07.990Z,3.3
2023-05-10T08:39:27.003Z,3.3
2023-05-10T08:40:24.848Z,2.1
2023-05-10T08:41:33.152Z,2.1
2023-05-10T08:42:41.476Z,2.1
2023-05-10T08:43:50.058Z,1.9
2023-05-10T08:44:58.320Z,1.9
2023-05-10T08:46:06.665Z,1.9
2023-05-10T08:47:15.234Z,1.5
2023-05-10T08:48:23.483Z,1.5
2023-05-10T08:49:31.812Z,1.5
2023-05-10T08:50:40.346Z,1.6
2023-05-10T08:51:48.656Z,1.6
2023-05-10T08:52:56.985Z,1.6
2023-05-10T08:54:05.530Z,1.4
2023-05-10T08:55:13.860Z,1.4
2023-05-10T08:56:22.134Z,1.4
2023-05-10T08:57:30.712Z,1.5
2023-05-10T08:58:39.052Z,1.5
2023-05-10T08:59:47.336Z,1.5
2023-05-10T09:00:55.879Z,1.4
2023-05-10T09:02:04.281Z,1.4
2023-05-10T09:03:12.532Z,1.4
2023-05-10T09:04:21.164Z,1.6
2023-05-10T09:05:29.425Z,1.6
2023-05-10T09:06:37.779Z,1.6
2023-05-10T09:07:46.251Z,2.4
2023-05-10T09:08:54.572Z,2.4
2023-05-10T09:10:02.904Z,2.4
2023-05-10T09:11:11.408Z,2.1
2023-05-10T09:12:19.815Z,2.1
2023-05-10T09:13:28.111Z,2.1
2023-05-10T09:14:36.604Z,2.3
2023-05-10T09:15:44.932Z,2.3
2023-05-10T09:16:53.317Z,2.3
2023-05-10T09:18:01.828Z,1.7
2023-05-10T09:19:10.176Z,1.7
2023-05-10T09:20:18.485Z,1.7
2023-05-10T09:21:27.000Z,1.5
2023-05-10T09:22:35.330Z,1.5
2023-05-10T09:23:43.985Z,1.5
2023-05-10T09:24:52.201Z,1.8
2023-05-10T09:26:00.575Z,1.8
2023-05-10T09:27:08.905Z,1.8
2023-05-10T09:28:17.417Z,1.7
2023-05-10T09:29:25.791Z,1.7
2023-05-10T09:30:34.145Z,1.7
2023-05-10T09:31:42.665Z,1.6
2023-05-10T09:32:51.118Z,1.6
2023-05-10T09:33:59.413Z,1.6
2023-05-10T09:35:07.926Z,3.3
2023-05-10T09:36:16.276Z,3.3
2023-05-10T09:37:24.617Z,3.3
2023-05-10T09:38:33.124Z,1.3
2023-05-10T09:39:41.458Z,1.3
2023-05-10T09:40:49.784Z,1.3
2023-05-10T09:41:58.313Z,1.4
2023-05-10T09:43:06.645Z,1.4
2023-05-10T09:44:15.000Z,1.4
2023-05-10T09:45:23.541Z,1.2
2023-05-10T09:46:31.879Z,1.2
2023-05-10T09:47:40.197Z,1.2
2023-05-10T09:48:48.741Z,1.4
2023-05-10T09:49:57.114Z,1.4
2023-05-10T09:51:05.414Z,1.4
2023-05-10T09:52:13.930Z,1.5
2023-05-10T09:53:22.260Z,1.5
2023-05-10T09:54:30.632Z,1.5
2023-05-10T09:55:39.147Z,1.5
2023-05-10T09:56:47.477Z,1.5
2023-05-10T09:57:55.847Z,1.5
2023-05-10T09:59:04.387Z,1.5
2023-05-10T10:00:12.727Z,1.5
2023-05-10T10:01:21.155Z,1.5
2023-05-10T10:02:29.685Z,1.5
2023-05-10T10:03:38.016Z,1.5
2023-05-10T10:04:46.429Z,1.5
2023-05-10T10:05:54.906Z,1.7
2023-05-10T10:07:03.233Z,1.7
2023-05-10T10:08:11.614Z,1.7
2023-05-10T10:09:20.227Z,2
2023-05-10T10:10:28.510Z,2
2023-05-10T10:11:36.879Z,2
2023-05-10T10:12:45.471Z,2
2023-05-10T10:13:53.852Z,2
2023-05-10T10:15:02.187Z,2
2023-05-10T10:16:10.795Z,1.7
2023-05-10T10:17:19.570Z,1.7
2023-05-10T10:18:28.393Z,1.7
2023-05-10T10:19:37.328Z,2.3
2023-05-10T10:20:45.209Z,2.3
2023-05-10T10:21:53.569Z,2.3
2023-05-10T10:23:02.113Z,2.9
2023-05-10T10:24:10.464Z,2.9
2023-05-10T10:25:19.002Z,2.9
2023-05-10T10:26:27.355Z,1.8
2023-05-10T10:27:35.705Z,1.8
2023-05-10T10:28:44.065Z,1.8
2023-05-10T10:29:52.636Z,2.4
2023-05-10T10:31:00.991Z,2.4
2023-05-10T10:32:09.379Z,2.4
2023-05-10T10:33:27.621Z,1.5
2023-05-10T10:34:26.289Z,1.5
2023-05-10T10:35:34.660Z,1.5
2023-05-10T10:36:43.263Z,1.8
2023-05-10T10:37:51.786Z,1.8
2023-05-10T10:39:00.014Z,1.8
2023-05-10T10:41:41.858Z,1.6
2023-05-10T10:42:50.144Z,1.6
2023-05-10T10:43:58.681Z,1.3
2023-05-10T10:45:07.061Z,1.3
2023-05-10T10:46:15.510Z,1.3
2023-05-10T10:47:23.999Z,1.8
2023-05-10T10:48:32.242Z,1.8
2023-05-10T10:49:40.554Z,1.8
2023-05-10T10:50:49.316Z,1.3
2023-05-10T10:51:57.632Z,1.3
2023-05-10T10:53:06.019Z,1.3
2023-05-10T10:54:14.494Z,1.6
2023-05-10T10:55:22.819Z,1.6
2023-05-10T10:56:31.156Z,1.6
2023-05-10T10:57:39.684Z,1.9
2023-05-10T10:58:47.997Z,1.9
2023-05-10T10:59:56.302Z,1.9
2023-05-10T11:01:04.895Z,1.1
2023-05-10T11:02:13.145Z,1.1
2023-05-10T11:03:21.476Z,1.1
2023-05-10T11:04:30.020Z,1.8
2023-05-10T11:05:38.311Z,1.8
2023-05-10T11:06:46.617Z,1.8
2023-05-10T11:07:55.147Z,1.1
2023-05-10T11:09:03.510Z,1.1
2023-05-10T11:10:11.822Z,1.1
2023-05-10T11:11:20.352Z,1.5
2023-05-10T11:12:28.728Z,1.5
2023-05-10T11:13:37.018Z,1.5
2023-05-10T11:14:45.547Z,1.4
2023-05-10T11:15:53.873Z,1.4
2023-05-10T11:17:02.232Z,1.4
2023-05-10T11:18:10.744Z,1.3
2023-05-10T11:19:19.074Z,1.3
2023-05-10T11:20:27.394Z,1.3
2023-05-10T11:21:35.933Z,1.5
2023-05-10T11:22:44.240Z,1.5
2023-05-10T11:23:52.596Z,1.5
2023-05-10T11:25:01.101Z,1.9
2023-05-10T11:26:09.376Z,1.9
2023-05-10T11:27:17.717Z,1.9
2023-05-10T11:28:26.227Z,1.4
2023-05-10T11:29:34.566Z,1.4
2023-05-10T11:30:42.947Z,1.4
2023-05-10T11:31:51.465Z,1.6
2023-05-10T11:32:59.795Z,1.6
2023-05-10T11:34:08.090Z,1.6
2023-05-10T11:35:16.616Z,2.9
2023-05-10T11:36:24.921Z,2.9
2023-05-10T11:37:33.261Z,2.9
2023-05-10T11:38:41.759Z,1.1
2023-05-10T11:39:50.092Z,1.1
2023-05-10T11:40:58.433Z,1.1
2023-05-10T11:42:06.957Z,1.2
2023-05-10T11:43:15.278Z,1.2
2023-05-10T11:44:23.572Z,1.2
2023-05-10T11:45:32.116Z,1.4
2023-05-10T11:46:40.423Z,1.4
2023-05-10T11:47:48.756Z,1.4
2023-05-10T11:48:57.239Z,2.8
2023-05-10T11:50:05.554Z,2.8
2023-05-10T11:51:13.860Z,2.8
2023-05-10T11:52:22.382Z,1.5
2023-05-10T11:53:30.702Z,1.5
2023-05-10T11:54:39.025Z,1.5
2023-05-10T11:55:47.550Z,1
2023-05-10T11:56:55.924Z,1
2023-05-10T11:58:04.202Z,1
2023-05-10T11:59:12.712Z,1.5
2023-05-10T12:00:21.017Z,1.5
2023-05-10T12:01:29.333Z,1.5
2023-05-10T12:02:37.923Z,1.9
2023-05-10T12:03:46.307Z,1.9
2023-05-10T12:04:54.541Z,1.9
2023-05-10T12:06:03.003Z,1.1
2023-05-10T12:07:11.305Z,1.1
2023-05-10T12:08:19.617Z,1.1
2023-05-10T12:09:40.005Z,1.5
2023-05-10T12:10:36.438Z,1.5
2023-05-10T12:11:44.772Z,1.5
2023-05-10T12:12:53.307Z,1
2023-05-10T12:14:01.581Z,1
2023-05-10T12:15:09.884Z,1
2023-05-10T12:16:18.446Z,1.4
2023-05-10T12:17:26.723Z,1.4
2023-05-10T12:18:35.049Z,1.4
2023-05-10T12:19:43.541Z,1.6
2023-05-10T12:20:51.886Z,1.6
2023-05-10T12:22:00.189Z,1.6
2023-05-10T12:23:08.735Z,1.2
2023-05-10T12:24:17.070Z,1.2
2023-05-10T12:25:25.404Z,1.2
2023-05-10T12:26:33.941Z,2.1
2023-05-10T12:27:42.280Z,2.1
2023-05-10T12:28:50.603Z,2.1
2023-05-10T12:29:59.129Z,1.3
2023-05-10T12:31:07.488Z,1.3
2023-05-10T12:32:15.946Z,1.3
2023-05-10T12:33:24.326Z,2.1
2023-05-10T12:34:32.639Z,2.1
2023-05-10T12:35:42.971Z,2.1
2023-05-10T12:36:49.632Z,1.5
2023-05-10T12:37:57.977Z,1.5
2023-05-10T12:39:06.260Z,1.5
2023-05-10T12:40:14.959Z,0.5
2023-05-10T12:41:23.203Z,0.5
2023-05-10T12:42:31.510Z,0.5
2023-05-10T12:43:40.079Z,1
2023-05-10T12:44:48.483Z,1
2023-05-10T12:45:56.806Z,1
2023-05-10T12:47:05.311Z,1.2
2023-05-10T12:48:13.624Z,1.2
2023-05-10T12:49:21.947Z,1.2
2023-05-10T12:50:30.469Z,1.1
2023-05-10T12:51:38.777Z,1.1
2023-05-10T12:52:47.110Z,1.1
2023-05-10T12:53:55.645Z,1.2
2023-05-10T12:55:03.942Z,1.2
2023-05-10T12:56:12.261Z,1.2
2023-05-10T12:57:20.836Z,1.5
2023-05-10T12:58:35.396Z,1.5
2023-05-10T12:59:38.249Z,1.5
2023-05-10T13:00:45.988Z,1.1
2023-05-10T13:01:54.284Z,1.1
2023-05-10T13:03:02.729Z,1.1
2023-05-10T13:04:11.176Z,1.5
2023-05-10T13:05:19.463Z,1.5
2023-05-10T13:06:27.787Z,1.5
2023-05-10T13:07:36.288Z,0.9
2023-05-10T13:08:44.615Z,0.9
2023-05-10T13:09:52.959Z,0.9
2023-05-10T13:11:01.501Z,1
2023-05-10T13:12:10.204Z,1
2023-05-10T13:13:18.166Z,1
2023-05-10T13:14:26.739Z,1.3
2023-05-10T13:15:35.053Z,1.3
2023-05-10T13:16:43.460Z,1.3
2023-05-10T13:17:51.908Z,1.3
2023-05-10T13:19:00.358Z,1.3
2023-05-10T13:20:08.508Z,1.3
2023-05-10T13:21:17.064Z,1.3
2023-05-10T13:22:32.787Z,1.3
2023-05-10T13:23:33.690Z,1.3
2023-05-10T13:24:42.198Z,2.2
2023-05-10T13:25:50.510Z,2.2
2023-05-10T13:26:58.822Z,2.2
2023-05-10T13:28:07.342Z,1.6
2023-05-10T13:29:15.666Z,1.6
2023-05-10T13:30:23.980Z,1.6
2023-05-10T13:31:32.530Z,1.2
2023-05-10T13:32:40.878Z,1.2
2023-05-10T13:33:49.196Z,1.2
2023-05-10T13:34:57.700Z,1
2023-05-10T13:36:06.054Z,1
2023-05-10T13:37:14.388Z,1
2023-05-10T13:38:22.909Z,2
2023-05-10T13:39:31.235Z,2
2023-05-10T13:40:39.569Z,2
2023-05-10T13:41:48.135Z,3.7
2023-05-10T13:42:56.433Z,3.7
2023-05-10T13:44:04.738Z,3.7
2023-05-10T13:45:13.381Z,2.6
2023-05-10T13:46:21.642Z,2.6
2023-05-10T13:47:29.950Z,2.6
2023-05-10T13:48:39.069Z,2.3
2023-05-10T13:49:46.758Z,2.3
2023-05-10T13:50:55.081Z,2.3
2023-05-10T13:52:03.615Z,1.7
2023-05-10T13:53:11.940Z,1.7
2023-05-10T13:54:20.260Z,1.7
2023-05-10T13:55:28.807Z,2.3
2023-05-10T13:56:37.135Z,2.3
2023-05-10T13:57:45.459Z,2.3
2023-05-10T13:58:53.986Z,1.9
2023-05-10T14:00:02.326Z,1.9
2023-05-10T14:01:10.696Z,1.9
2023-05-10T14:02:19.243Z,2.7
2023-05-10T14:03:27.648Z,2.7
2023-05-10T14:04:35.915Z,2.7
2023-05-10T14:05:44.407Z,2
2023-05-10T14:06:52.714Z,2
2023-05-10T14:08:01.044Z,2
2023-05-10T14:09:09.579Z,3.1
2023-05-10T14:10:17.919Z,3.1
2023-05-10T14:11:26.225Z,3.1
2023-05-10T14:12:34.792Z,2.6
2023-05-10T14:13:43.091Z,2.6
2023-05-10T14:14:51.442Z,2.6
2023-05-10T14:16:00.011Z,3
2023-05-10T14:17:10.122Z,3
2023-05-10T14:18:16.719Z,3
2023-05-10T14:19:25.269Z,2.3
2023-05-10T14:20:33.640Z,2.3
2023-05-10T14:21:41.956Z,2.3
2023-05-10T14:22:50.474Z,4.2
2023-05-10T14:23:58.765Z,4.2
2023-05-10T14:25:07.064Z,4.2
2023-05-10T14:26:15.601Z,1.5
2023-05-10T14:27:23.912Z,1.5
2023-05-10T14:28:32.215Z,1.5
2023-05-10T14:29:40.733Z,1.8
2023-05-10T14:30:49.039Z,1.8
2023-05-10T14:31:57.423Z,1.8
2023-05-10T14:33:05.977Z,2
2023-05-10T14:34:14.252Z,2
2023-05-10T14:35:22.686Z,2
2023-05-10T14:36:31.151Z,4.6
2023-05-10T14:37:39.459Z,4.6
2023-05-10T14:38:47.780Z,4.6
2023-05-10T14:39:56.293Z,1.9
2023-05-10T14:41:04.614Z,1.9
2023-05-10T14:42:12.939Z,1.9
2023-05-10T14:43:21.477Z,2.7
2023-05-10T14:44:29.804Z,2.7
2023-05-10T14:45:38.153Z,2.7
2023-05-10T14:46:46.665Z,2.7
2023-05-10T14:47:54.989Z,2.7
2023-05-10T14:49:03.399Z,2.7
2023-05-10T14:50:16.629Z,2.3
2023-05-10T14:51:20.217Z,2.3
2023-05-10T14:52:28.561Z,2.3
2023-05-10T14:53:37.036Z,4.3
2023-05-10T14:54:45.366Z,4.3
2023-05-10T14:55:53.668Z,4.3
2023-05-10T14:57:02.209Z,2.7
2023-05-10T14:58:10.547Z,2.7
2023-05-10T14:59:18.893Z,2.7
2023-05-10T15:00:27.396Z,5.2
2023-05-10T15:01:35.776Z,5.2
2023-05-10T15:02:44.155Z,5.2
2023-05-10T15:03:52.723Z,3.1
2023-05-10T15:05:00.955Z,3.1
2023-05-10T15:06:09.306Z,3.1
2023-05-10T15:07:17.837Z,3.2
2023-05-10T15:08:26.181Z,3.2
2023-05-10T15:09:34.476Z,3.2
2023-05-10T15:10:43.004Z,3.9
2023-05-10T15:44:32.911Z,0
2023-05-10T15:45:41.180Z,0
2023-05-10T15:46:49.539Z,0
2023-05-10T15:47:58.091Z,4
2023-05-10T15:49:06.379Z,4
2023-05-10T15:50:14.689Z,4
2023-05-10T15:51:23.195Z,4
2023-05-10T15:52:31.505Z,4
2023-05-10T15:53:44.319Z,4
2023-05-10T15:54:48.327Z,4.4
2023-05-10T15:55:56.652Z,4.4
2023-05-10T15:57:04.971Z,4.4
2023-05-10T15:58:13.504Z,4.5
2023-05-10T15:59:21.828Z,4.5
2023-05-10T16:00:30.169Z,4.5
2023-05-10T16:01:38.644Z,5.3
2023-05-10T16:02:47.064Z,5.3
2023-05-10T16:03:55.402Z,5.3
2023-05-10T16:05:03.920Z,4.4
2023-05-10T16:06:12.235Z,4.4
2023-05-10T16:07:20.606Z,4.4
2023-05-10T16:08:29.137Z,4.4
2023-05-10T16:09:37.452Z,4.4
2023-05-10T16:10:45.790Z,4.4
2023-05-10T16:11:54.327Z,3.9
2023-05-10T16:13:02.618Z,3.9
2023-05-10T16:14:10.934Z,3.9
2023-05-10T16:15:19.553Z,4.8
2023-05-10T16:16:27.900Z,4.8
2023-05-10T16:17:36.252Z,4.8
2023-05-10T16:18:44.688Z,4.2
2023-05-10T16:19:52.922Z,4.2
2023-05-10T16:21:01.237Z,4.2
2023-05-10T16:22:09.807Z,4.6